• Join FlightAware (Why Join?)
  • Login
  • US Flag 
02:29AM EDT


 

Airport Tracker/Info


-or-


 

Live Flight TrackerFlight Track Log ✈ LXJ541 ✈ 08-Jun-2013 ✈ KISM - KMVY

Flight Track Log - Related Links

Times and Time Zones

All times are in EDT time to prevent confusion due to time zone crossing. See the LXJ541 flight status page for this flight to view local times or setup timezone preferences in your user account.

Time Position Orientation Groundspeed Altitude Reporting Facility
EDT Latitude Longitude Course Direction KTS MPH feet Rate Location/Type
09:08AM 28.2667 -81.4333 240° Southwest 165 190 800  Level Orlando TRACON
09:09AM 28.2500 -81.4667 240° Southwest 246 283 2,900 1,740 Climbing Orlando TRACON
09:10AM 28.2667 -81.5333 286° West 287 330 4,000 600 Climbing Orlando TRACON
09:11AM 28.3500 -81.5667 341° North 282 325 4,100 1,320 Climbing Orlando TRACON
09:12AM 28.4000 -81.5833 344° North 288 331 6,400 3,000 Climbing Orlando TRACON
09:14AM 28.5939 -81.5756 North 310 357 13,100 2,940 Climbing Jacksonville Center
09:15AM 28.6961 -81.5625 North 346 398 15,800 2,580 Climbing Jacksonville Center
09:16AM 28.8067 -81.5586 North 370 426 18,300 2,520 Climbing Jacksonville Center
09:17AM 28.9153 -81.5594 360° North 382 440 20,900 2,460 Climbing Jacksonville Center
09:18AM 29.0319 -81.5508 North 393 452 23,300 2,160 Climbing Jacksonville Center
09:19AM 29.1447 -81.5542 359° North 404 465 25,300 1,680 Climbing Jacksonville Center
09:20AM 29.2511 -81.5503 North 404 465 26,700 1,380 Climbing Jacksonville Center
09:21AM 29.3742 -81.5461 North 418 481 28,100 1,380 Climbing Jacksonville Center
09:22AM 29.5058 -81.5419 North 446 513 29,500 1,200 Climbing Jacksonville Center
09:23AM 29.6372 -81.5353 North 458 527 30,600 1,080 Climbing Jacksonville Center
09:24AM 29.7728 -81.5311 North 474 545 31,700 1,080 Climbing Jacksonville Center
09:25AM 29.9106 -81.5244 North 479 551 32,800 1,200 Climbing Jacksonville Center
09:26AM 30.0483 -81.5200 North 484 557 34,100 1,260 Climbing Jacksonville Center
09:27AM 30.1861 -81.5133 North 490 564 35,400 1,440 Climbing Jacksonville Center
09:28AM 30.3425 -81.5086 North 500 575 37,000 1,500 Climbing Jacksonville Center
09:29AM 30.4822 -81.4969 North 500 575 38,500 1,500 Climbing Jacksonville Center
09:30AM 30.6158 -81.4878 North 495 570 40,000 1,200 Climbing Jacksonville Center
09:31AM 30.7514 -81.4761 North 490 564 41,000 480 Climbing Jacksonville Center
09:32AM 30.8850 -81.4667 North 485 558 41,000  Level Jacksonville Center
09:33AM 31.0225 -81.4575 North 485 558 41,000  Level Jacksonville Center
09:34AM 31.1603 -81.4431 North 485 558 41,000  Level Jacksonville Center
09:35AM 31.2933 -81.3997 16° North 487 560 41,000  Level Jacksonville Center
09:36AM 31.4111 -81.3056 34° Northeast 498 573 41,000  Level Jacksonville Center
09:37AM 31.5289 -81.2058 36° Northeast 522 601 41,000  Level Jacksonville Center
09:38AM 31.6467 -81.1036 36° Northeast 517 595 41,000  Level Jacksonville Center
09:39AM 31.7664 -81.0061 35° Northeast 517 595 41,000  Level Jacksonville Center
09:40AM 31.8733 -80.9158 36° Northeast 517 595 41,000  Level Jacksonville Center
09:41AM 32.0053 -80.8053 35° Northeast 517 595 41,000  Level Jacksonville Center
09:42AM 32.1206 -80.7094 35° Northeast 517 595 41,000  Level Jacksonville Center
09:43AM 32.2397 -80.6058 36° Northeast 517 595 41,000  Level Jacksonville Center
09:44AM 32.3569 -80.5047 36° Northeast 517 595 41,000  Level Jacksonville Center
09:45AM 32.4761 -80.4006 36° Northeast 523 602 41,000  Level Jacksonville Center
09:46AM 32.5931 -80.2986 36° Northeast 518 596 41,000  Level Jacksonville Center
09:47AM 32.7119 -80.1939 37° Northeast 518 596 41,000  Level Jacksonville Center
09:48AM 32.8306 -80.0892 37° Northeast 518 596 41,000  Level Jacksonville Center
09:49AM 32.9492 -79.9814 37° Northeast 523 602 41,000  Level Jacksonville Center
09:50AM 33.0656 -79.8711 38° Northeast 528 608 41,000  Level Jacksonville Center
09:51AM 33.1697 -79.7708 39° Northeast 533 613 41,000  Level Jacksonville Center
09:52AM 33.2858 -79.6600 39° Northeast 533 613 41,000  Level Jacksonville Center
09:53AM 33.3978 -79.5489 40° Northeast 528 608 41,000  Level Jacksonville Center
09:54AM 33.5136 -79.4350 39° Northeast 533 613 41,000  Level Jacksonville Center
09:55AM 33.6275 -79.3258 39° Northeast 533 613 41,000  Level Jacksonville Center
09:56AM 33.7328 -79.2192 40° Northeast 528 608 41,000  Level Jacksonville Center
09:57AM 33.8425 -79.1119 39° Northeast 512 589 41,000  Level Jacksonville Center
09:58AM 33.9581 -79.0019 38° Northeast 512 589 41,000  Level Jacksonville Center
09:59AM 34.0711 -78.8889 40° Northeast 517 595 41,000  Level Jacksonville Center
10:01AM 34.2822 -78.6783 39° Northeast 510 587 41,000  Level Washington Center
10:02AM 34.3958 -78.5644 40° Northeast 510 587 41,000  Level Washington Center
10:03AM 34.5069 -78.4525 40° Northeast 515 593 41,000  Level Washington Center
10:04AM 34.6203 -78.3378 40° Northeast 515 593 41,000  Level Washington Center
10:05AM 34.7333 -78.2228 40° Northeast 515 593 41,000  Level Washington Center
10:06AM 34.8297 -78.1147 43° Northeast 515 593 41,000  Level Washington Center
10:07AM 34.9425 -77.9992 40° Northeast 520 598 41,000  Level Washington Center
10:08AM 35.0511 -77.8881 40° Northeast 520 598 41,000  Level Washington Center
10:09AM 35.1639 -77.7719 40° Northeast 515 593 41,000  Level Washington Center
10:10AM 35.2744 -77.6578 40° Northeast 515 593 41,000  Level Washington Center
10:11AM 35.3847 -77.5436 40° Northeast 515 593 41,000  Level Washington Center
10:12AM 35.5033 -77.4392 36° Northeast 515 593 41,000  Level Washington Center
10:13AM 35.6239 -77.3372 34° Northeast 515 593 41,000  Level Washington Center
10:14AM 35.7381 -77.2347 36° Northeast 515 593 41,000  Level Washington Center
10:15AM 35.8647 -77.1222 36° Northeast 515 593 41,000 -60 Level Washington Center
10:16AM 35.9806 -77.0167 36° Northeast 515 593 40,900 300 Descending Washington Center
10:17AM 36.1008 -76.9133 35° Northeast 515 593 41,700 840 Climbing Washington Center
10:18AM 36.2167 -76.8122 35° Northeast 515 593 42,600 660 Climbing Washington Center
10:19AM 36.3303 -76.7083 36° Northeast 509 586 43,000 180 Climbing Washington Center
10:20AM 36.4481 -76.6042 35° Northeast 509 586 43,000  Level Washington Center
10:21AM 36.5636 -76.5022 35° Northeast 509 586 43,000  Level Washington Center
10:22AM 36.6792 -76.3975 36° Northeast 509 586 43,000  Level Washington Center
10:23AM 36.7842 -76.2972 37° Northeast 515 593 43,000  Level Washington Center
10:24AM 36.8994 -76.1969 35° Northeast 510 587 43,000  Level Washington Center
10:25AM 37.0542 -76.1228 21° North 510 587 43,000  Level Washington Center
10:26AM 37.1817 -76.0533 23° Northeast 510 587 43,000  Level Washington Center
10:27AM 37.3111 -75.9836 23° Northeast 505 581 43,000  Level Washington Center
10:28AM 37.4447 -75.9108 23° Northeast 505 581 43,000  Level Washington Center
10:29AM 37.5722 -75.8328 26° Northeast 505 581 43,000 -60 Level Washington Center
10:30AM 37.6725 -75.7597 30° Northeast 505 581 42,900  Descending Washington Center
10:31AM 37.8081 -75.6600 30° Northeast 505 581 43,000  Climbing Washington Center
10:32AM 37.9311 -75.5656 31° Northeast 511 588 43,000  Level Washington Center
10:33AM 38.0564 -75.4678 32° Northeast 511 588 43,000  Level Washington Center
10:34AM 38.1708 -75.3514 39° Northeast 523 602 43,000  Level Washington Center
10:35AM 38.2872 -75.2347 38° Northeast 523 602 43,000  Level Washington Center
10:36AM 38.3972 -75.1122 41° Northeast 528 608 43,000  Level Washington Center
10:37AM 38.5114 -74.9894 40° Northeast 528 608 43,000  Level Washington Center
10:38AM 38.6233 -74.8717 39° Northeast 528 608 43,000  Level Washington Center
10:39AM 38.7353 -74.7506 40° Northeast 528 608 43,000 -60 Level Washington Center
10:40AM 38.8489 -74.6294 40° Northeast 528 608 42,900  Descending Washington Center
10:41AM 38.9625 -74.5106 39° Northeast 523 602 43,000  Climbing Washington Center
10:42AM 39.0739 -74.3858 41° Northeast 523 602 43,000  Level Washington Center
10:43AM 39.1831 -74.2689 40° Northeast 518 596 43,000  Level Washington Center
10:44AM 39.2922 -74.1461 41° Northeast 524 603 43,000  Level Washington Center
10:46AM 39.5450 -73.8683 40° Northeast 530 610 43,000  Level Boston Center
10:47AM 39.6469 -73.7036 51° Northeast 524 603 43,000  Level Boston Center
10:48AM 39.7381 -73.5517 52° Northeast 524 603 43,000  Level Boston Center
10:49AM 39.8247 -73.4044 53° Northeast 524 603 43,000  Level Boston Center
10:50AM 39.9072 -73.2758 50° Northeast 519 597 43,000 -360 Level Boston Center
10:51AM 39.9936 -73.1253 53° Northeast 519 597 42,300 -1,620 Descending Boston Center
10:52AM 40.0756 -72.9769 54° Northeast 514 592 39,800 -2,040 Descending Boston Center
10:53AM 40.1658 -72.8231 52° Northeast 514 592 38,300 -1,260 Descending Boston Center
10:54AM 40.2642 -72.6467 54° Northeast 533 613 37,300 -660 Descending Boston Center
10:55AM 40.3581 -72.4892 52° Northeast 540 621 37,000 -1,020 Descending Boston Center
10:56AM 40.4478 -72.3283 54° Northeast 545 627 35,300 -2,580 Descending Boston Center
10:57AM 40.5350 -72.1669 55° Northeast 545 627 31,900 -3,240 Descending Boston Center
10:58AM 40.6242 -72.0136 53° Northeast 539 620 28,900 -3,000 Descending Boston Center
10:59AM 40.7089 -71.8597 54° Northeast 528 608 25,900 -2,760 Descending Boston Center
11:00AM 40.7894 -71.7356 49° Northeast 507 583 23,400 -2,640 Descending Boston Center
11:01AM 40.8633 -71.5947 55° Northeast 492 566 20,700 -2,520 Descending Boston Center
11:02AM 40.9331 -71.4511 57° Northeast 469 540 18,400 -2,700 Descending Boston Center
11:03AM 41.0314 -71.2844 52° Northeast 436 502 14,800 -2,760 Descending Boston Center
11:04AM 41.0764 -71.2011 54° Northeast 418 481 12,900 -2,280 Descending Boston Center
11:05AM 41.1294 -71.0981 56° Northeast 418 481 10,800 -1,800 Descending Boston Center
11:06AM 41.1944 -70.9669 57° Northeast 372 428 9,300 -900 Descending Boston Center
11:07AM 41.2325 -70.8531 66° East 340 391 9,000 -780 Descending Boston Center
11:08AM 41.2622 -70.7336 72° East 335 386 7,800 -1,260 Descending Boston Center
11:09AM 41.2997 -70.6083 68° East 335 386 6,500 -1,380 Descending Boston Center
11:10AM 41.3400 -70.5186 59° Northeast 317 365 5,100 -780 Descending Boston Center
11:11AM 41.3844 -70.4453 51° Northeast 293 337 5,000 -600 Descending Boston Center
11:12AM 41.4253 -70.3914 45° Northeast 239 275 4,000 -1,020 Descending Boston Center
11:13AM 41.4631 -70.4150 335° Northwest 161 185 3,000 -540 Descending Boston Center
11:14AM 41.4931 -70.4503 319° Northwest 128 147 3,000 -720 Level Boston Center
11:15AM 41.4836 -70.5086 258° West 120 138 1,600 -780 Descending Boston Center
11:16AM 41.4531 -70.5483 224° Southwest 125 144 1,500 -420 Descending Boston Center
11:17AM 41.4242 -70.5769 217° Southwest 140 161 800 -480 Descending Boston Center
11:18AM 41.3956 -70.6136 224° Southwest 140 161 600 4,080 Descending Boston Center
11:19AM 41.3650 -70.6478 220° Southwest 140 161 9,000 4,200 Climbing Boston Center
11:20AM 41.3342 -70.6847 222° Southwest 140 161 9,000  Level Boston Center